sensor_id;sensor_type;location;lat;lon;timestamp;P1;durP1;ratioP1;P2;durP2;ratioP2
53299;SDS011;39187;48.476;8.310;2023-04-25T00:01:13;2.90;;;2.80;;
53299;SDS011;39187;48.476;8.310;2023-04-25T00:03:38;3.63;;;3.43;;
53299;SDS011;39187;48.476;8.310;2023-04-25T00:06:05;3.40;;;3.13;;
53299;SDS011;39187;48.476;8.310;2023-04-25T00:08:31;3.00;;;2.80;;
53299;SDS011;39187;48.476;8.310;2023-04-25T00:10:57;3.43;;;2.93;;
53299;SDS011;39187;48.476;8.310;2023-04-25T00:13:23;3.53;;;3.30;;
53299;SDS011;39187;48.476;8.310;2023-04-25T00:15:50;3.27;;;3.13;;
53299;SDS011;39187;48.476;8.310;2023-04-25T00:18:18;3.10;;;2.90;;
53299;SDS011;39187;48.476;8.310;2023-04-25T00:20:44;8.43;;;3.00;;
53299;SDS011;39187;48.476;8.310;2023-04-25T00:23:12;4.33;;;3.20;;
53299;SDS011;39187;48.476;8.310;2023-04-25T00:25:45;2.90;;;2.77;;
53299;SDS011;39187;48.476;8.310;2023-04-25T00:28:14;4.53;;;3.13;;
53299;SDS011;39187;48.476;8.310;2023-04-25T00:30:40;3.43;;;3.13;;
53299;SDS011;39187;48.476;8.310;2023-04-25T00:33:08;3.23;;;3.00;;
53299;SDS011;39187;48.476;8.310;2023-04-25T00:35:34;3.37;;;3.07;;
53299;SDS011;39187;48.476;8.310;2023-04-25T00:38:00;4.50;;;4.10;;
53299;SDS011;39187;48.476;8.310;2023-04-25T00:40:26;5.90;;;4.10;;
53299;SDS011;39187;48.476;8.310;2023-04-25T00:42:52;3.27;;;3.07;;
53299;SDS011;39187;48.476;8.310;2023-04-25T00:45:18;4.00;;;3.80;;
53299;SDS011;39187;48.476;8.310;2023-04-25T00:47:44;3.30;;;3.10;;
53299;SDS011;39187;48.476;8.310;2023-04-25T00:50:11;3.77;;;3.47;;
53299;SDS011;39187;48.476;8.310;2023-04-25T00:52:44;5.67;;;4.03;;
53299;SDS011;39187;48.476;8.310;2023-04-25T00:55:11;3.10;;;2.97;;
53299;SDS011;39187;48.476;8.310;2023-04-25T00:57:37;4.93;;;3.47;;
53299;SDS011;39187;48.476;8.310;2023-04-25T01:00:07;3.30;;;3.10;;
53299;SDS011;39187;48.476;8.310;2023-04-25T01:02:35;3.37;;;3.27;;
53299;SDS011;39187;48.476;8.310;2023-04-25T01:05:01;3.73;;;3.30;;
53299;SDS011;39187;48.476;8.310;2023-04-25T01:07:27;4.17;;;3.80;;
53299;SDS011;39187;48.476;8.310;2023-04-25T01:09:53;3.53;;;3.13;;
53299;SDS011;39187;48.476;8.310;2023-04-25T01:12:19;4.00;;;3.17;;
53299;SDS011;39187;48.476;8.310;2023-04-25T01:14:44;3.73;;;3.30;;
53299;SDS011;39187;48.476;8.310;2023-04-25T01:17:11;5.60;;;3.77;;
53299;SDS011;39187;48.476;8.310;2023-04-25T01:19:36;6.90;;;4.00;;
53299;SDS011;39187;48.476;8.310;2023-04-25T01:22:02;3.00;;;2.87;;
53299;SDS011;39187;48.476;8.310;2023-04-25T01:24:29;3.47;;;3.30;;
53299;SDS011;39187;48.476;8.310;2023-04-25T01:26:56;3.70;;;3.40;;
53299;SDS011;39187;48.476;8.310;2023-04-25T01:29:23;4.03;;;3.83;;
53299;SDS011;39187;48.476;8.310;2023-04-25T01:31:49;3.77;;;3.50;;
53299;SDS011;39187;48.476;8.310;2023-04-25T01:34:16;4.50;;;4.10;;
53299;SDS011;39187;48.476;8.310;2023-04-25T01:36:41;4.07;;;3.70;;
53299;SDS011;39187;48.476;8.310;2023-04-25T01:39:07;6.70;;;3.37;;
53299;SDS011;39187;48.476;8.310;2023-04-25T01:41:33;9.93;;;4.63;;
53299;SDS011;39187;48.476;8.310;2023-04-25T01:44:02;4.00;;;3.70;;
53299;SDS011;39187;48.476;8.310;2023-04-25T01:46:28;4.40;;;4.00;;
53299;SDS011;39187;48.476;8.310;2023-04-25T01:48:53;5.43;;;4.20;;
53299;SDS011;39187;48.476;8.310;2023-04-25T01:51:19;12.70;;;5.10;;
53299;SDS011;39187;48.476;8.310;2023-04-25T01:53:45;4.30;;;4.10;;
53299;SDS011;39187;48.476;8.310;2023-04-25T01:56:11;4.63;;;4.33;;
53299;SDS011;39187;48.476;8.310;2023-04-25T01:58:36;3.53;;;3.43;;
53299;SDS011;39187;48.476;8.310;2023-04-25T02:01:02;3.93;;;3.47;;
53299;SDS011;39187;48.476;8.310;2023-04-25T02:03:27;4.07;;;3.87;;
53299;SDS011;39187;48.476;8.310;2023-04-25T02:05:54;10.73;;;4.40;;
53299;SDS011;39187;48.476;8.310;2023-04-25T02:08:20;6.90;;;4.13;;
53299;SDS011;39187;48.476;8.310;2023-04-25T02:10:45;5.00;;;4.60;;
53299;SDS011;39187;48.476;8.310;2023-04-25T02:13:11;3.93;;;3.67;;
53299;SDS011;39187;48.476;8.310;2023-04-25T02:15:36;3.77;;;3.50;;
53299;SDS011;39187;48.476;8.310;2023-04-25T02:18:02;7.03;;;4.33;;
53299;SDS011;39187;48.476;8.310;2023-04-25T02:20:28;4.90;;;4.50;;
53299;SDS011;39187;48.476;8.310;2023-04-25T02:22:55;5.23;;;4.50;;
53299;SDS011;39187;48.476;8.310;2023-04-25T02:25:21;4.83;;;4.53;;
53299;SDS011;39187;48.476;8.310;2023-04-25T02:27:47;4.13;;;3.83;;
53299;SDS011;39187;48.476;8.310;2023-04-25T02:30:13;10.33;;;4.20;;
53299;SDS011;39187;48.476;8.310;2023-04-25T02:32:39;5.00;;;4.60;;
53299;SDS011;39187;48.476;8.310;2023-04-25T02:35:06;4.13;;;3.83;;
53299;SDS011;39187;48.476;8.310;2023-04-25T02:37:32;7.20;;;4.77;;
53299;SDS011;39187;48.476;8.310;2023-04-25T02:39:58;4.33;;;4.03;;
53299;SDS011;39187;48.476;8.310;2023-04-25T02:42:24;4.67;;;4.47;;
53299;SDS011;39187;48.476;8.310;2023-04-25T02:44:50;4.77;;;4.20;;
53299;SDS011;39187;48.476;8.310;2023-04-25T02:47:15;4.77;;;4.50;;
53299;SDS011;39187;48.476;8.310;2023-04-25T02:49:41;5.00;;;4.80;;
53299;SDS011;39187;48.476;8.310;2023-04-25T02:52:06;4.50;;;4.30;;
53299;SDS011;39187;48.476;8.310;2023-04-25T02:54:32;4.80;;;4.30;;
53299;SDS011;39187;48.476;8.310;2023-04-25T02:56:57;6.60;;;4.17;;
53299;SDS011;39187;48.476;8.310;2023-04-25T02:59:23;5.90;;;4.07;;
53299;SDS011;39187;48.476;8.310;2023-04-25T03:01:48;4.97;;;4.50;;
53299;SDS011;39187;48.476;8.310;2023-04-25T03:04:14;4.27;;;4.00;;
53299;SDS011;39187;48.476;8.310;2023-04-25T03:06:40;5.13;;;4.80;;
53299;SDS011;39187;48.476;8.310;2023-04-25T03:09:05;4.70;;;4.50;;
53299;SDS011;39187;48.476;8.310;2023-04-25T03:11:31;5.30;;;4.70;;
53299;SDS011;39187;48.476;8.310;2023-04-25T03:13:56;4.60;;;4.20;;
53299;SDS011;39187;48.476;8.310;2023-04-25T03:16:22;4.80;;;4.40;;
53299;SDS011;39187;48.476;8.310;2023-04-25T03:18:47;5.07;;;4.60;;
53299;SDS011;39187;48.476;8.310;2023-04-25T03:21:15;4.43;;;4.23;;
53299;SDS011;39187;48.476;8.310;2023-04-25T03:23:40;5.17;;;4.63;;
53299;SDS011;39187;48.476;8.310;2023-04-25T03:26:06;4.13;;;3.83;;
53299;SDS011;39187;48.476;8.310;2023-04-25T03:28:31;12.17;;;4.30;;
53299;SDS011;39187;48.476;8.310;2023-04-25T03:30:57;6.13;;;3.87;;
53299;SDS011;39187;48.476;8.310;2023-04-25T03:33:22;4.27;;;4.03;;
53299;SDS011;39187;48.476;8.310;2023-04-25T03:35:48;3.60;;;3.30;;
53299;SDS011;39187;48.476;8.310;2023-04-25T03:38:15;3.93;;;3.57;;
53299;SDS011;39187;48.476;8.310;2023-04-25T03:40:40;4.53;;;4.10;;
53299;SDS011;39187;48.476;8.310;2023-04-25T03:43:06;5.03;;;3.23;;
53299;SDS011;39187;48.476;8.310;2023-04-25T03:45:32;7.60;;;4.43;;
53299;SDS011;39187;48.476;8.310;2023-04-25T03:47:57;5.80;;;4.20;;
53299;SDS011;39187;48.476;8.310;2023-04-25T03:50:23;5.67;;;4.50;;
53299;SDS011;39187;48.476;8.310;2023-04-25T03:52:48;6.73;;;5.67;;
53299;SDS011;39187;48.476;8.310;2023-04-25T03:55:14;3.97;;;3.67;;
53299;SDS011;39187;48.476;8.310;2023-04-25T03:57:39;2.97;;;2.87;;
53299;SDS011;39187;48.476;8.310;2023-04-25T04:00:05;3.97;;;3.60;;
53299;SDS011;39187;48.476;8.310;2023-04-25T04:02:31;2.63;;;2.53;;
53299;SDS011;39187;48.476;8.310;2023-04-25T04:04:58;2.10;;;2.00;;
53299;SDS011;39187;48.476;8.310;2023-04-25T04:07:23;2.03;;;1.93;;
53299;SDS011;39187;48.476;8.310;2023-04-25T04:09:49;2.30;;;2.20;;
53299;SDS011;39187;48.476;8.310;2023-04-25T04:12:14;2.53;;;2.33;;
53299;SDS011;39187;48.476;8.310;2023-04-25T04:14:40;3.20;;;3.00;;
53299;SDS011;39187;48.476;8.310;2023-04-25T04:17:05;3.70;;;3.27;;
53299;SDS011;39187;48.476;8.310;2023-04-25T04:19:31;3.57;;;3.47;;
53299;SDS011;39187;48.476;8.310;2023-04-25T04:21:56;3.50;;;3.27;;
53299;SDS011;39187;48.476;8.310;2023-04-25T04:24:22;3.53;;;3.23;;
53299;SDS011;39187;48.476;8.310;2023-04-25T04:26:47;3.80;;;3.27;;
53299;SDS011;39187;48.476;8.310;2023-04-25T04:29:13;3.47;;;3.20;;
53299;SDS011;39187;48.476;8.310;2023-04-25T04:31:46;2.70;;;2.60;;
53299;SDS011;39187;48.476;8.310;2023-04-25T04:34:13;3.43;;;3.23;;
53299;SDS011;39187;48.476;8.310;2023-04-25T04:36:38;3.00;;;2.87;;
53299;SDS011;39187;48.476;8.310;2023-04-25T04:39:05;3.07;;;2.87;;
53299;SDS011;39187;48.476;8.310;2023-04-25T04:41:31;3.00;;;2.90;;
53299;SDS011;39187;48.476;8.310;2023-04-25T04:43:57;3.13;;;3.03;;
53299;SDS011;39187;48.476;8.310;2023-04-25T04:46:22;3.50;;;3.30;;
53299;SDS011;39187;48.476;8.310;2023-04-25T04:48:49;3.80;;;3.50;;
53299;SDS011;39187;48.476;8.310;2023-04-25T04:51:15;3.00;;;2.90;;
53299;SDS011;39187;48.476;8.310;2023-04-25T04:53:40;3.80;;;3.23;;
53299;SDS011;39187;48.476;8.310;2023-04-25T04:56:06;3.67;;;3.33;;
53299;SDS011;39187;48.476;8.310;2023-04-25T04:58:31;2.57;;;2.37;;
53299;SDS011;39187;48.476;8.310;2023-04-25T05:00:57;3.30;;;3.00;;
53299;SDS011;39187;48.476;8.310;2023-04-25T05:03:22;4.37;;;3.67;;
53299;SDS011;39187;48.476;8.310;2023-04-25T05:05:48;4.13;;;3.93;;
53299;SDS011;39187;48.476;8.310;2023-04-25T05:08:13;3.30;;;3.00;;
53299;SDS011;39187;48.476;8.310;2023-04-25T05:10:39;3.27;;;3.07;;
53299;SDS011;39187;48.476;8.310;2023-04-25T05:13:04;3.67;;;3.50;;
53299;SDS011;39187;48.476;8.310;2023-04-25T05:15:30;2.80;;;2.70;;
53299;SDS011;39187;48.476;8.310;2023-04-25T05:17:55;3.30;;;3.10;;
53299;SDS011;39187;48.476;8.310;2023-04-25T05:20:21;3.87;;;3.10;;
53299;SDS011;39187;48.476;8.310;2023-04-25T05:22:46;4.47;;;3.63;;
53299;SDS011;39187;48.476;8.310;2023-04-25T05:25:12;3.50;;;3.30;;
53299;SDS011;39187;48.476;8.310;2023-04-25T05:27:37;7.17;;;3.73;;
53299;SDS011;39187;48.476;8.310;2023-04-25T05:30:03;2.60;;;2.50;;
53299;SDS011;39187;48.476;8.310;2023-04-25T05:32:30;3.50;;;3.30;;
53299;SDS011;39187;48.476;8.310;2023-04-25T05:34:55;3.90;;;3.60;;
53299;SDS011;39187;48.476;8.310;2023-04-25T05:37:21;2.90;;;2.80;;
53299;SDS011;39187;48.476;8.310;2023-04-25T05:39:46;4.43;;;3.30;;
53299;SDS011;39187;48.476;8.310;2023-04-25T05:42:12;3.10;;;2.90;;
53299;SDS011;39187;48.476;8.310;2023-04-25T05:44:38;3.13;;;3.03;;
53299;SDS011;39187;48.476;8.310;2023-04-25T05:47:03;3.10;;;3.00;;
53299;SDS011;39187;48.476;8.310;2023-04-25T05:49:30;2.87;;;2.40;;
53299;SDS011;39187;48.476;8.310;2023-04-25T05:51:55;5.67;;;3.40;;
53299;SDS011;39187;48.476;8.310;2023-04-25T05:54:21;3.40;;;3.30;;
53299;SDS011;39187;48.476;8.310;2023-04-25T05:56:46;3.47;;;3.27;;
53299;SDS011;39187;48.476;8.310;2023-04-25T05:59:12;5.23;;;3.03;;
53299;SDS011;39187;48.476;8.310;2023-04-25T06:01:37;3.50;;;3.30;;
53299;SDS011;39187;48.476;8.310;2023-04-25T06:04:03;6.53;;;3.27;;
53299;SDS011;39187;48.476;8.310;2023-04-25T06:06:28;3.67;;;3.30;;
53299;SDS011;39187;48.476;8.310;2023-04-25T06:08:54;3.73;;;3.53;;
53299;SDS011;39187;48.476;8.310;2023-04-25T06:11:20;3.37;;;3.17;;
53299;SDS011;39187;48.476;8.310;2023-04-25T06:13:46;3.37;;;3.17;;
53299;SDS011;39187;48.476;8.310;2023-04-25T06:16:11;5.03;;;3.80;;
53299;SDS011;39187;48.476;8.310;2023-04-25T06:18:37;7.00;;;3.40;;
53299;SDS011;39187;48.476;8.310;2023-04-25T06:21:02;3.50;;;3.23;;
53299;SDS011;39187;48.476;8.310;2023-04-25T06:23:28;3.40;;;3.20;;
53299;SDS011;39187;48.476;8.310;2023-04-25T06:25:53;4.03;;;3.63;;
53299;SDS011;39187;48.476;8.310;2023-04-25T06:28:19;3.67;;;3.47;;
53299;SDS011;39187;48.476;8.310;2023-04-25T06:30:47;4.33;;;2.93;;
53299;SDS011;39187;48.476;8.310;2023-04-25T06:33:12;4.10;;;3.80;;
53299;SDS011;39187;48.476;8.310;2023-04-25T06:35:37;7.10;;;3.50;;
53299;SDS011;39187;48.476;8.310;2023-04-25T06:38:03;2.90;;;2.70;;
53299;SDS011;39187;48.476;8.310;2023-04-25T06:40:29;3.30;;;3.20;;
53299;SDS011;39187;48.476;8.310;2023-04-25T06:42:54;3.37;;;3.07;;
53299;SDS011;39187;48.476;8.310;2023-04-25T06:45:20;2.80;;;2.70;;
53299;SDS011;39187;48.476;8.310;2023-04-25T06:47:45;4.77;;;2.80;;
53299;SDS011;39187;48.476;8.310;2023-04-25T06:50:10;2.90;;;2.80;;
53299;SDS011;39187;48.476;8.310;2023-04-25T06:52:36;2.47;;;2.37;;
53299;SDS011;39187;48.476;8.310;2023-04-25T06:55:02;2.20;;;2.10;;
53299;SDS011;39187;48.476;8.310;2023-04-25T06:57:29;2.30;;;2.10;;
53299;SDS011;39187;48.476;8.310;2023-04-25T06:59:54;2.20;;;1.63;;
53299;SDS011;39187;48.476;8.310;2023-04-25T07:02:20;1.77;;;1.67;;
53299;SDS011;39187;48.476;8.310;2023-04-25T07:04:46;3.67;;;1.30;;
53299;SDS011;39187;48.476;8.310;2023-04-25T07:07:12;2.23;;;1.50;;
53299;SDS011;39187;48.476;8.310;2023-04-25T07:09:37;1.90;;;1.73;;
53299;SDS011;39187;48.476;8.310;2023-04-25T07:12:03;1.30;;;1.20;;
53299;SDS011;39187;48.476;8.310;2023-04-25T07:14:29;1.30;;;1.30;;
53299;SDS011;39187;48.476;8.310;2023-04-25T07:16:54;2.03;;;1.20;;
53299;SDS011;39187;48.476;8.310;2023-04-25T07:19:21;1.03;;;1.03;;
53299;SDS011;39187;48.476;8.310;2023-04-25T07:21:49;0.90;;;0.90;;
53299;SDS011;39187;48.476;8.310;2023-04-25T07:24:14;1.83;;;0.80;;
53299;SDS011;39187;48.476;8.310;2023-04-25T07:26:40;0.70;;;0.70;;
53299;SDS011;39187;48.476;8.310;2023-04-25T07:29:05;1.20;;;1.13;;
53299;SDS011;39187;48.476;8.310;2023-04-25T07:31:31;1.40;;;1.30;;
53299;SDS011;39187;48.476;8.310;2023-04-25T07:33:56;4.00;;;0.87;;
53299;SDS011;39187;48.476;8.310;2023-04-25T07:36:22;1.00;;;1.00;;
53299;SDS011;39187;48.476;8.310;2023-04-25T07:38:47;0.67;;;0.67;;
53299;SDS011;39187;48.476;8.310;2023-04-25T07:41:13;0.70;;;0.70;;
53299;SDS011;39187;48.476;8.310;2023-04-25T07:43:38;0.70;;;0.70;;
53299;SDS011;39187;48.476;8.310;2023-04-25T07:46:04;0.80;;;0.80;;
53299;SDS011;39187;48.476;8.310;2023-04-25T07:48:30;0.77;;;0.77;;
53299;SDS011;39187;48.476;8.310;2023-04-25T07:50:55;0.80;;;0.80;;
53299;SDS011;39187;48.476;8.310;2023-04-25T07:53:21;0.90;;;0.90;;
53299;SDS011;39187;48.476;8.310;2023-04-25T07:55:46;0.80;;;0.70;;
53299;SDS011;39187;48.476;8.310;2023-04-25T07:58:12;0.70;;;0.70;;
53299;SDS011;39187;48.476;8.310;2023-04-25T08:00:38;0.60;;;0.60;;
53299;SDS011;39187;48.476;8.310;2023-04-25T08:03:04;0.57;;;0.57;;
53299;SDS011;39187;48.476;8.310;2023-04-25T08:05:29;0.57;;;0.57;;
53299;SDS011;39187;48.476;8.310;2023-04-25T08:07:55;0.60;;;0.60;;
53299;SDS011;39187;48.476;8.310;2023-04-25T08:10:22;0.50;;;0.50;;
53299;SDS011;39187;48.476;8.310;2023-04-25T08:12:48;0.50;;;0.50;;
53299;SDS011;39187;48.476;8.310;2023-04-25T08:15:13;0.60;;;0.60;;
53299;SDS011;39187;48.476;8.310;2023-04-25T08:17:39;0.70;;;0.70;;
53299;SDS011;39187;48.476;8.310;2023-04-25T08:20:05;0.50;;;0.50;;
53299;SDS011;39187;48.476;8.310;2023-04-25T08:22:31;0.50;;;0.50;;
53299;SDS011;39187;48.476;8.310;2023-04-25T08:24:57;0.70;;;0.70;;
53299;SDS011;39187;48.476;8.310;2023-04-25T08:27:23;0.50;;;0.50;;
53299;SDS011;39187;48.476;8.310;2023-04-25T08:29:48;0.50;;;0.50;;
53299;SDS011;39187;48.476;8.310;2023-04-25T08:32:15;0.47;;;0.47;;
53299;SDS011;39187;48.476;8.310;2023-04-25T08:34:41;0.50;;;0.50;;
53299;SDS011;39187;48.476;8.310;2023-04-25T08:37:08;0.60;;;0.60;;
53299;SDS011;39187;48.476;8.310;2023-04-25T08:39:35;0.50;;;0.50;;
53299;SDS011;39187;48.476;8.310;2023-04-25T08:42:02;0.50;;;0.50;;
53299;SDS011;39187;48.476;8.310;2023-04-25T08:44:35;0.50;;;0.50;;
53299;SDS011;39187;48.476;8.310;2023-04-25T08:47:04;0.50;;;0.50;;
53299;SDS011;39187;48.476;8.310;2023-04-25T08:49:33;0.50;;;0.50;;
53299;SDS011;39187;48.476;8.310;2023-04-25T08:52:00;0.50;;;0.50;;
53299;SDS011;39187;48.476;8.310;2023-04-25T08:54:30;0.50;;;0.50;;
53299;SDS011;39187;48.476;8.310;2023-04-25T08:56:57;0.60;;;0.60;;
53299;SDS011;39187;48.476;8.310;2023-04-25T08:59:28;0.70;;;0.70;;
53299;SDS011;39187;48.476;8.310;2023-04-25T09:01:53;0.50;;;0.50;;
53299;SDS011;39187;48.476;8.310;2023-04-25T09:04:20;0.60;;;0.60;;
53299;SDS011;39187;48.476;8.310;2023-04-25T09:06:46;0.50;;;0.50;;
53299;SDS011;39187;48.476;8.310;2023-04-25T09:09:12;0.50;;;0.50;;
53299;SDS011;39187;48.476;8.310;2023-04-25T09:11:39;1.70;;;1.60;;
53299;SDS011;39187;48.476;8.310;2023-04-25T09:14:15;0.50;;;0.50;;
53299;SDS011;39187;48.476;8.310;2023-04-25T09:19:24;0.50;;;0.50;;
53299;SDS011;39187;48.476;8.310;2023-04-25T09:21:54;0.40;;;0.40;;
53299;SDS011;39187;48.476;8.310;2023-04-25T09:24:35;0.50;;;0.50;;
53299;SDS011;39187;48.476;8.310;2023-04-25T09:27:18;0.50;;;0.50;;
53299;SDS011;39187;48.476;8.310;2023-04-25T09:29:47;0.60;;;0.60;;
53299;SDS011;39187;48.476;8.310;2023-04-25T09:32:24;0.50;;;0.50;;
53299;SDS011;39187;48.476;8.310;2023-04-25T09:34:50;0.50;;;0.50;;
53299;SDS011;39187;48.476;8.310;2023-04-25T09:37:18;0.50;;;0.50;;
53299;SDS011;39187;48.476;8.310;2023-04-25T09:39:50;0.50;;;0.50;;
53299;SDS011;39187;48.476;8.310;2023-04-25T09:42:21;0.50;;;0.50;;
53299;SDS011;39187;48.476;8.310;2023-04-25T09:44:49;0.50;;;0.50;;
53299;SDS011;39187;48.476;8.310;2023-04-25T09:47:17;0.50;;;0.50;;
53299;SDS011;39187;48.476;8.310;2023-04-25T09:49:43;0.50;;;0.50;;
53299;SDS011;39187;48.476;8.310;2023-04-25T09:52:19;0.50;;;0.50;;
53299;SDS011;39187;48.476;8.310;2023-04-25T09:54:46;0.50;;;0.50;;
53299;SDS011;39187;48.476;8.310;2023-04-25T09:57:14;0.50;;;0.50;;
53299;SDS011;39187;48.476;8.310;2023-04-25T09:59:48;0.50;;;0.50;;
53299;SDS011;39187;48.476;8.310;2023-04-25T10:02:23;0.50;;;0.50;;
53299;SDS011;39187;48.476;8.310;2023-04-25T10:04:51;0.50;;;0.50;;
53299;SDS011;39187;48.476;8.310;2023-04-25T10:07:20;0.50;;;0.50;;
53299;SDS011;39187;48.476;8.310;2023-04-25T10:09:51;0.60;;;0.60;;
53299;SDS011;39187;48.476;8.310;2023-04-25T10:12:24;0.50;;;0.50;;
53299;SDS011;39187;48.476;8.310;2023-04-25T10:14:51;0.60;;;0.60;;
53299;SDS011;39187;48.476;8.310;2023-04-25T10:17:17;0.50;;;0.50;;
53299;SDS011;39187;48.476;8.310;2023-04-25T10:19:45;0.50;;;0.50;;
53299;SDS011;39187;48.476;8.310;2023-04-25T10:22:20;0.50;;;0.50;;
53299;SDS011;39187;48.476;8.310;2023-04-25T10:24:54;0.40;;;0.40;;
53299;SDS011;39187;48.476;8.310;2023-04-25T10:27:21;0.50;;;0.50;;
53299;SDS011;39187;48.476;8.310;2023-04-25T10:29:59;0.50;;;0.50;;
53299;SDS011;39187;48.476;8.310;2023-04-25T10:32:27;0.40;;;0.40;;
53299;SDS011;39187;48.476;8.310;2023-04-25T10:34:52;0.60;;;0.50;;
53299;SDS011;39187;48.476;8.310;2023-04-25T10:37:19;0.50;;;0.50;;
53299;SDS011;39187;48.476;8.310;2023-04-25T10:39:45;0.50;;;0.50;;
53299;SDS011;39187;48.476;8.310;2023-04-25T10:42:11;0.50;;;0.50;;
53299;SDS011;39187;48.476;8.310;2023-04-25T10:44:37;0.50;;;0.50;;
53299;SDS011;39187;48.476;8.310;2023-04-25T10:47:06;0.50;;;0.50;;
53299;SDS011;39187;48.476;8.310;2023-04-25T10:49:35;0.50;;;0.50;;
53299;SDS011;39187;48.476;8.310;2023-04-25T10:54:46;0.60;;;0.60;;
53299;SDS011;39187;48.476;8.310;2023-04-25T10:57:37;0.50;;;0.50;;
53299;SDS011;39187;48.476;8.310;2023-04-25T11:02:46;0.70;;;0.70;;
53299;SDS011;39187;48.476;8.310;2023-04-25T11:05:23;0.80;;;0.80;;
53299;SDS011;39187;48.476;8.310;2023-04-25T11:08:01;0.63;;;0.63;;
53299;SDS011;39187;48.476;8.310;2023-04-25T11:10:31;23.43;;;1.13;;
53299;SDS011;39187;48.476;8.310;2023-04-25T11:13:00;9.83;;;0.90;;
53299;SDS011;39187;48.476;8.310;2023-04-25T11:15:26;5.70;;;0.77;;
53299;SDS011;39187;48.476;8.310;2023-04-25T11:17:53;3.03;;;0.90;;
53299;SDS011;39187;48.476;8.310;2023-04-25T11:20:20;1.73;;;1.20;;
53299;SDS011;39187;48.476;8.310;2023-04-25T11:22:46;39.20;;;2.00;;
53299;SDS011;39187;48.476;8.310;2023-04-25T11:25:13;1.40;;;1.30;;
53299;SDS011;39187;48.476;8.310;2023-04-25T11:27:52;58.93;;;3.40;;
53299;SDS011;39187;48.476;8.310;2023-04-25T11:30:19;62.60;;;2.87;;
53299;SDS011;39187;48.476;8.310;2023-04-25T11:32:46;1.30;;;1.27;;
53299;SDS011;39187;48.476;8.310;2023-04-25T11:35:12;21.73;;;2.33;;
53299;SDS011;39187;48.476;8.310;2023-04-25T11:37:39;4.87;;;1.80;;
53299;SDS011;39187;48.476;8.310;2023-04-25T11:40:05;4.20;;;2.20;;
53299;SDS011;39187;48.476;8.310;2023-04-25T11:42:33;11.83;;;2.13;;
53299;SDS011;39187;48.476;8.310;2023-04-25T11:44:59;4.73;;;2.07;;
53299;SDS011;39187;48.476;8.310;2023-04-25T11:47:31;1.40;;;1.40;;
53299;SDS011;39187;48.476;8.310;2023-04-25T11:49:58;1.63;;;1.53;;
53299;SDS011;39187;48.476;8.310;2023-04-25T11:52:46;14.90;;;2.10;;
53299;SDS011;39187;48.476;8.310;2023-04-25T11:55:13;2.90;;;2.30;;
53299;SDS011;39187;48.476;8.310;2023-04-25T11:57:41;57.20;;;3.47;;
53299;SDS011;39187;48.476;8.310;2023-04-25T12:00:17;9.70;;;2.87;;
53299;SDS011;39187;48.476;8.310;2023-04-25T12:02:46;2.37;;;2.27;;
53299;SDS011;39187;48.476;8.310;2023-04-25T12:05:15;2.43;;;2.33;;
53299;SDS011;39187;48.476;8.310;2023-04-25T12:07:41;2.90;;;2.80;;
53299;SDS011;39187;48.476;8.310;2023-04-25T12:10:11;3.00;;;2.90;;
53299;SDS011;39187;48.476;8.310;2023-04-25T12:12:41;2.97;;;2.87;;
53299;SDS011;39187;48.476;8.310;2023-04-25T12:15:25;3.10;;;2.57;;
53299;SDS011;39187;48.476;8.310;2023-04-25T12:17:52;2.60;;;2.50;;
53299;SDS011;39187;48.476;8.310;2023-04-25T12:20:20;3.00;;;2.90;;
53299;SDS011;39187;48.476;8.310;2023-04-25T12:22:49;3.63;;;3.53;;
53299;SDS011;39187;48.476;8.310;2023-04-25T12:28:17;2.70;;;2.60;;
53299;SDS011;39187;48.476;8.310;2023-04-25T12:33:32;4.67;;;4.37;;
53299;SDS011;39187;48.476;8.310;2023-04-25T12:35:59;4.17;;;3.97;;
53299;SDS011;39187;48.476;8.310;2023-04-25T12:40:55;4.00;;;3.80;;
53299;SDS011;39187;48.476;8.310;2023-04-25T12:43:21;4.20;;;4.10;;
53299;SDS011;39187;48.476;8.310;2023-04-25T12:45:53;4.10;;;3.90;;
53299;SDS011;39187;48.476;8.310;2023-04-25T12:48:19;4.67;;;4.47;;
53299;SDS011;39187;48.476;8.310;2023-04-25T12:50:46;3.50;;;3.30;;
53299;SDS011;39187;48.476;8.310;2023-04-25T12:53:18;3.63;;;3.53;;
53299;SDS011;39187;48.476;8.310;2023-04-25T12:55:45;3.90;;;3.70;;
53299;SDS011;39187;48.476;8.310;2023-04-25T12:58:15;4.00;;;3.80;;
53299;SDS011;39187;48.476;8.310;2023-04-25T13:00:41;4.73;;;4.50;;
53299;SDS011;39187;48.476;8.310;2023-04-25T13:03:08;4.77;;;4.57;;
53299;SDS011;39187;48.476;8.310;2023-04-25T13:05:34;4.33;;;4.13;;
53299;SDS011;39187;48.476;8.310;2023-04-25T13:08:00;4.43;;;4.13;;
53299;SDS011;39187;48.476;8.310;2023-04-25T13:10:26;4.30;;;4.10;;
53299;SDS011;39187;48.476;8.310;2023-04-25T13:12:51;5.20;;;5.00;;
53299;SDS011;39187;48.476;8.310;2023-04-25T13:15:17;4.67;;;4.40;;
53299;SDS011;39187;48.476;8.310;2023-04-25T13:17:42;3.70;;;3.50;;
53299;SDS011;39187;48.476;8.310;2023-04-25T13:20:08;4.63;;;4.40;;
53299;SDS011;39187;48.476;8.310;2023-04-25T13:22:35;5.13;;;4.93;;
53299;SDS011;39187;48.476;8.310;2023-04-25T13:25:03;4.30;;;4.10;;
53299;SDS011;39187;48.476;8.310;2023-04-25T13:27:29;3.90;;;3.70;;
53299;SDS011;39187;48.476;8.310;2023-04-25T13:29:55;3.63;;;3.43;;
53299;SDS011;39187;48.476;8.310;2023-04-25T13:32:21;4.47;;;4.20;;
53299;SDS011;39187;48.476;8.310;2023-04-25T13:34:46;5.20;;;3.80;;
53299;SDS011;39187;48.476;8.310;2023-04-25T13:37:12;4.00;;;3.80;;
53299;SDS011;39187;48.476;8.310;2023-04-25T13:39:37;4.00;;;3.80;;
53299;SDS011;39187;48.476;8.310;2023-04-25T13:42:03;4.40;;;4.20;;
53299;SDS011;39187;48.476;8.310;2023-04-25T13:44:28;4.60;;;4.37;;
53299;SDS011;39187;48.476;8.310;2023-04-25T13:46:54;4.50;;;4.20;;
53299;SDS011;39187;48.476;8.310;2023-04-25T13:49:19;4.57;;;4.37;;
53299;SDS011;39187;48.476;8.310;2023-04-25T13:51:45;4.63;;;4.33;;
53299;SDS011;39187;48.476;8.310;2023-04-25T13:54:10;3.40;;;3.30;;
53299;SDS011;39187;48.476;8.310;2023-04-25T13:56:36;4.63;;;4.43;;
53299;SDS011;39187;48.476;8.310;2023-04-25T13:59:01;3.80;;;3.60;;
53299;SDS011;39187;48.476;8.310;2023-04-25T14:01:27;3.27;;;3.17;;
53299;SDS011;39187;48.476;8.310;2023-04-25T14:03:55;3.33;;;3.20;;
53299;SDS011;39187;48.476;8.310;2023-04-25T14:06:20;3.00;;;2.80;;
53299;SDS011;39187;48.476;8.310;2023-04-25T14:08:49;2.50;;;2.40;;
53299;SDS011;39187;48.476;8.310;2023-04-25T14:11:15;2.83;;;2.73;;
53299;SDS011;39187;48.476;8.310;2023-04-25T14:13:43;1.90;;;1.80;;
53299;SDS011;39187;48.476;8.310;2023-04-25T14:16:09;2.70;;;2.60;;
53299;SDS011;39187;48.476;8.310;2023-04-25T14:18:35;3.97;;;3.67;;
53299;SDS011;39187;48.476;8.310;2023-04-25T14:21:00;2.30;;;2.20;;
53299;SDS011;39187;48.476;8.310;2023-04-25T14:23:26;1.73;;;1.63;;
53299;SDS011;39187;48.476;8.310;2023-04-25T14:25:52;1.77;;;1.67;;
53299;SDS011;39187;48.476;8.310;2023-04-25T14:28:17;1.80;;;1.70;;
53299;SDS011;39187;48.476;8.310;2023-04-25T14:30:43;2.73;;;2.63;;
53299;SDS011;39187;48.476;8.310;2023-04-25T14:33:08;3.73;;;3.53;;
53299;SDS011;39187;48.476;8.310;2023-04-25T14:35:34;2.70;;;2.50;;
53299;SDS011;39187;48.476;8.310;2023-04-25T14:38:00;3.03;;;2.93;;
53299;SDS011;39187;48.476;8.310;2023-04-25T14:40:26;5.10;;;4.70;;
53299;SDS011;39187;48.476;8.310;2023-04-25T14:42:51;9.00;;;4.80;;
53299;SDS011;39187;48.476;8.310;2023-04-25T14:45:17;4.57;;;4.37;;
53299;SDS011;39187;48.476;8.310;2023-04-25T14:47:42;4.37;;;4.00;;
53299;SDS011;39187;48.476;8.310;2023-04-25T14:50:08;4.27;;;4.07;;
53299;SDS011;39187;48.476;8.310;2023-04-25T14:52:34;3.40;;;3.30;;
53299;SDS011;39187;48.476;8.310;2023-04-25T14:55:00;4.33;;;4.03;;
53299;SDS011;39187;48.476;8.310;2023-04-25T14:57:30;4.30;;;4.00;;
53299;SDS011;39187;48.476;8.310;2023-04-25T14:59:56;3.90;;;3.80;;
53299;SDS011;39187;48.476;8.310;2023-04-25T15:02:23;7.40;;;4.97;;